createdAt,value
2018-05-11T00:00:26.799Z,9.80
2018-05-11T00:01:26.798Z,9.84
2018-05-11T00:02:26.797Z,9.82
2018-05-11T00:03:26.794Z,9.82
2018-05-11T00:04:26.792Z,9.84
2018-05-11T00:05:26.790Z,9.84
2018-05-11T00:06:26.791Z,9.91
2018-05-11T00:07:26.788Z,9.83
2018-05-11T00:08:26.785Z,9.97
2018-05-11T00:09:26.785Z,10.01
2018-05-11T00:10:26.782Z,9.92
2018-05-11T00:11:26.781Z,9.95
2018-05-11T00:12:26.822Z,9.91
2018-05-11T00:13:26.778Z,9.98
2018-05-11T00:14:26.775Z,10.02
2018-05-11T00:15:26.774Z,10.10
2018-05-11T00:16:26.772Z,10.04
2018-05-11T00:17:26.778Z,10.10
2018-05-11T00:18:26.836Z,10.12
2018-05-11T00:19:26.767Z,10.13
2018-05-11T00:20:26.764Z,10.19
2018-05-11T00:21:26.762Z,10.07
2018-05-11T00:22:26.765Z,10.13
2018-05-11T00:23:26.776Z,10.16
2018-05-11T00:24:26.757Z,10.25
2018-05-11T00:25:26.760Z,10.17
2018-05-11T00:26:26.756Z,10.13
2018-05-11T00:27:26.754Z,10.16
2018-05-11T00:28:26.751Z,10.17
2018-05-11T00:29:26.750Z,10.12
2018-05-11T00:30:26.747Z,10.20
2018-05-11T00:31:26.746Z,9.99
2018-05-11T00:32:26.744Z,10.15
2018-05-11T00:33:26.742Z,10.09
2018-05-11T00:34:26.740Z,10.15
2018-05-11T00:35:26.738Z,10.09
2018-05-11T00:36:26.736Z,10.22
2018-05-11T00:37:26.735Z,10.13
2018-05-11T00:38:26.733Z,10.12
2018-05-11T00:39:26.732Z,10.10
2018-05-11T00:40:26.729Z,10.15
2018-05-11T00:41:26.729Z,10.22
2018-05-11T00:42:26.726Z,10.16
2018-05-11T00:43:26.725Z,10.09
2018-05-11T00:44:26.722Z,10.19
2018-05-11T00:45:26.720Z,10.15
2018-05-11T00:46:26.721Z,10.02
2018-05-11T00:47:26.717Z,10.04
2018-05-11T00:48:26.714Z,10.07
2018-05-11T00:49:26.712Z,9.91
2018-05-11T00:50:26.712Z,9.95
2018-05-11T00:51:26.709Z,9.99
2018-05-11T00:52:26.707Z,9.98
2018-05-11T00:53:26.707Z,10.02
2018-05-11T00:54:26.703Z,10.05
2018-05-11T00:55:26.701Z,9.92
2018-05-11T00:56:26.698Z,10.04
2018-05-11T00:57:26.698Z,10.01
2018-05-11T00:58:26.696Z,9.95
2018-05-11T00:59:26.694Z,9.91
2018-05-11T01:00:26.691Z,9.87
2018-05-11T01:01:26.690Z,9.86
2018-05-11T01:02:26.688Z,9.87
2018-05-11T01:03:26.685Z,9.82
2018-05-11T01:04:26.684Z,9.80
2018-05-11T01:05:26.682Z,9.76
2018-05-11T01:06:26.680Z,9.79
2018-05-11T01:07:26.679Z,9.84
2018-05-11T01:08:26.676Z,9.84
2018-05-11T01:09:26.674Z,9.80
2018-05-11T01:10:26.672Z,9.83
2018-05-11T01:11:26.671Z,9.72
2018-05-11T01:12:26.668Z,9.80
2018-05-11T01:13:26.665Z,9.80
2018-05-11T01:14:26.664Z,9.82
2018-05-11T01:15:26.663Z,9.80
2018-05-11T01:16:26.662Z,9.65
2018-05-11T01:17:26.658Z,9.77
2018-05-11T01:18:26.656Z,9.69
2018-05-11T01:19:26.655Z,9.69
2018-05-11T01:20:26.652Z,9.73
2018-05-11T01:21:26.650Z,9.76
2018-05-11T01:22:26.649Z,9.72
2018-05-11T01:23:26.647Z,9.65
2018-05-11T01:24:26.644Z,9.62
2018-05-11T01:25:26.642Z,9.65
2018-05-11T01:26:26.641Z,9.58
2018-05-11T01:27:26.639Z,9.55
2018-05-11T01:28:26.634Z,9.61
2018-05-11T01:29:26.633Z,9.55
2018-05-11T01:30:26.632Z,9.50
2018-05-11T01:31:26.634Z,9.58
2018-05-11T01:32:26.628Z,9.58
2018-05-11T01:33:26.625Z,9.48
2018-05-11T01:34:26.624Z,9.50
2018-05-11T01:35:26.622Z,9.50
2018-05-11T01:36:26.619Z,9.44
2018-05-11T01:37:26.618Z,9.34
2018-05-11T01:38:26.615Z,9.40
2018-05-11T01:39:26.613Z,9.26
2018-05-11T01:40:26.611Z,9.26
2018-05-11T01:41:26.644Z,9.32
2018-05-11T01:42:26.608Z,9.21
2018-05-11T01:43:26.607Z,9.14
2018-05-11T01:44:26.602Z,9.18
2018-05-11T01:45:26.606Z,9.19
2018-05-11T01:46:26.598Z,9.16
2018-05-11T01:47:26.597Z,9.10
2018-05-11T01:48:26.594Z,9.18
2018-05-11T01:49:26.593Z,9.11
2018-05-11T01:50:26.595Z,9.16
2018-05-11T01:51:26.595Z,9.10
2018-05-11T01:52:26.588Z,9.04
2018-05-11T01:53:26.584Z,9.06
2018-05-11T01:54:26.582Z,9.14
2018-05-11T01:55:26.580Z,9.03
2018-05-11T01:56:26.577Z,9.06
2018-05-11T01:57:26.577Z,9.04
2018-05-11T01:58:26.574Z,9.02
2018-05-11T01:59:26.572Z,9.00
2018-05-11T02:00:26.573Z,9.06
2018-05-11T02:01:26.567Z,8.97
2018-05-11T02:02:26.565Z,9.10
2018-05-11T02:03:26.563Z,9.03
2018-05-11T02:04:26.560Z,9.02
2018-05-11T02:05:26.558Z,9.10
2018-05-11T02:06:26.556Z,9.03
2018-05-11T02:07:26.554Z,9.03
2018-05-11T02:08:26.551Z,9.06
2018-05-11T02:09:26.548Z,9.03
2018-05-11T02:10:26.548Z,9.00
2018-05-11T02:11:26.545Z,9.02
2018-05-11T02:12:26.542Z,9.10
2018-05-11T02:13:26.548Z,8.97
2018-05-11T02:14:26.539Z,9.00
2018-05-11T02:15:26.537Z,8.92
2018-05-11T02:16:26.533Z,9.00
2018-05-11T02:17:26.533Z,8.95
2018-05-11T02:18:26.530Z,8.95
2018-05-11T02:19:26.527Z,8.95
2018-05-11T02:20:26.523Z,8.95
2018-05-11T02:21:26.522Z,9.02
2018-05-11T02:22:26.520Z,9.04
2018-05-11T02:23:26.519Z,8.99
2018-05-11T02:24:26.514Z,9.08
2018-05-11T02:25:26.512Z,8.99
2018-05-11T02:26:26.511Z,9.08
2018-05-11T02:27:26.509Z,9.14
2018-05-11T02:28:26.506Z,9.03
2018-05-11T02:29:26.503Z,8.92
2018-05-11T02:30:26.503Z,8.91
2018-05-11T02:31:26.504Z,8.79
2018-05-11T02:32:26.498Z,8.82
2018-05-11T02:33:26.495Z,8.84
2018-05-11T02:34:26.493Z,8.85
2018-05-11T02:35:26.490Z,8.76
2018-05-11T02:36:26.487Z,8.81
2018-05-11T02:37:26.485Z,8.73
2018-05-11T02:38:26.482Z,8.76
2018-05-11T02:39:26.481Z,8.74
2018-05-11T02:40:26.477Z,8.76
2018-05-11T02:41:26.476Z,8.73
2018-05-11T02:42:26.474Z,8.71
2018-05-11T02:43:26.471Z,8.74
2018-05-11T02:44:26.468Z,8.67
2018-05-11T02:45:26.467Z,8.71
2018-05-11T02:46:26.464Z,8.69
2018-05-11T02:47:26.462Z,8.64
2018-05-11T02:48:26.461Z,8.58
2018-05-11T02:49:26.461Z,8.61
2018-05-11T02:50:26.455Z,8.69
2018-05-11T02:51:26.453Z,8.69
2018-05-11T02:52:26.456Z,8.64
2018-05-11T02:53:26.455Z,8.61
2018-05-11T02:54:26.446Z,8.58
2018-05-11T02:55:26.442Z,8.58
2018-05-11T02:56:26.439Z,8.45
2018-05-11T02:57:26.436Z,8.45
2018-05-11T02:58:26.437Z,8.41
2018-05-11T02:59:26.431Z,8.46
2018-05-11T03:00:26.428Z,8.56
2018-05-11T03:01:26.427Z,8.44
2018-05-11T03:02:26.427Z,8.51
2018-05-11T03:03:26.422Z,8.56
2018-05-11T03:04:26.418Z,8.53
2018-05-11T03:05:26.426Z,8.48
2018-05-11T03:06:26.415Z,8.42
2018-05-11T03:07:26.413Z,8.42
2018-05-11T03:08:26.408Z,8.36
2018-05-11T03:09:26.407Z,8.33
2018-05-11T03:10:26.408Z,8.34
2018-05-11T03:11:26.401Z,8.26
2018-05-11T03:12:26.399Z,8.26
2018-05-11T03:13:26.397Z,8.36
2018-05-11T03:14:26.395Z,8.23
2018-05-11T03:15:26.392Z,8.34
2018-05-11T03:16:26.389Z,8.28
2018-05-11T03:17:26.388Z,8.27
2018-05-11T03:18:26.434Z,8.30
2018-05-11T03:19:26.383Z,8.19
2018-05-11T03:20:26.380Z,8.20
2018-05-11T03:21:26.378Z,8.24
2018-05-11T03:22:26.376Z,8.20
2018-05-11T03:23:26.372Z,8.19
2018-05-11T03:24:26.370Z,8.24
2018-05-11T03:25:26.366Z,8.12
2018-05-11T03:26:26.364Z,8.06
2018-05-11T03:27:26.361Z,8.01
2018-05-11T03:28:26.356Z,8.01
2018-05-11T03:29:26.389Z,8.01
2018-05-11T03:30:26.353Z,8.06
2018-05-11T03:31:26.351Z,7.88
2018-05-11T03:32:26.347Z,7.93
2018-05-11T03:33:26.345Z,7.97
2018-05-11T03:34:26.343Z,8.01
2018-05-11T03:35:26.353Z,8.10
2018-05-11T03:36:26.339Z,8.18
2018-05-11T03:37:26.337Z,8.19
2018-05-11T03:38:26.336Z,8.16
2018-05-11T03:39:26.329Z,8.45
2018-05-11T03:40:26.326Z,8.66
2018-05-11T03:41:26.325Z,8.64
2018-05-11T03:42:26.321Z,8.67
2018-05-11T03:43:26.318Z,8.71
2018-05-11T03:44:26.316Z,8.69
2018-05-11T03:45:26.313Z,8.76
2018-05-11T03:46:26.310Z,8.82
2018-05-11T03:47:26.309Z,8.89
2018-05-11T03:48:26.305Z,8.84
2018-05-11T03:49:26.304Z,8.81
2018-05-11T03:50:26.300Z,8.99
2018-05-11T03:51:26.298Z,8.97
2018-05-11T03:52:26.296Z,8.95
2018-05-11T03:53:26.292Z,9.08
2018-05-11T03:54:26.289Z,8.99
2018-05-11T03:55:26.286Z,8.99
2018-05-11T03:56:26.285Z,9.04
2018-05-11T03:57:26.280Z,9.04
2018-05-11T03:58:26.278Z,8.99
2018-05-11T03:59:26.277Z,9.06
2018-05-11T04:00:26.273Z,9.06
2018-05-11T04:01:26.270Z,9.14
2018-05-11T04:02:26.268Z,9.14
2018-05-11T04:03:26.266Z,9.08
2018-05-11T04:04:26.266Z,9.10
2018-05-11T04:05:26.260Z,9.19
2018-05-11T04:06:26.258Z,9.22
2018-05-11T04:07:26.256Z,9.25
2018-05-11T04:08:26.254Z,9.32
2018-05-11T04:09:26.250Z,9.26
2018-05-11T04:10:26.248Z,9.40
2018-05-11T04:11:26.250Z,9.43
2018-05-11T04:12:26.243Z,9.44
2018-05-11T04:13:26.241Z,9.36
2018-05-11T04:14:26.239Z,9.41
2018-05-11T04:15:26.237Z,9.41
2018-05-11T04:16:26.236Z,9.40
2018-05-11T04:17:26.231Z,9.46
2018-05-11T04:18:26.245Z,9.41
2018-05-11T04:19:26.228Z,9.43
2018-05-11T04:20:26.228Z,9.51
2018-05-11T04:21:26.222Z,9.55
2018-05-11T04:22:26.222Z,9.46
2018-05-11T04:23:26.220Z,9.44
2018-05-11T04:24:26.216Z,9.47
2018-05-11T04:25:26.216Z,9.56
2018-05-11T04:26:26.213Z,9.54
2018-05-11T04:27:26.211Z,9.54
2018-05-11T04:28:26.211Z,9.56
2018-05-11T04:29:26.206Z,9.50
2018-05-11T04:30:26.205Z,9.46
2018-05-11T04:31:26.203Z,9.50
2018-05-11T04:32:26.200Z,9.55
2018-05-11T04:33:26.198Z,9.62
2018-05-11T04:34:26.196Z,9.65
2018-05-11T04:35:26.196Z,9.62
2018-05-11T04:36:26.192Z,9.73
2018-05-11T04:37:26.190Z,9.87
2018-05-11T04:38:26.188Z,9.89
2018-05-11T04:39:26.191Z,9.89
2018-05-11T04:40:26.183Z,10.01
2018-05-11T04:41:26.181Z,10.20
2018-05-11T04:42:26.186Z,10.25
2018-05-11T04:43:26.178Z,10.31
2018-05-11T04:44:26.175Z,10.37
2018-05-11T04:45:26.174Z,10.35
2018-05-11T04:46:26.173Z,10.34
2018-05-11T04:47:26.170Z,10.33
2018-05-11T04:48:26.167Z,10.42
2018-05-11T04:49:26.166Z,10.49
2018-05-11T04:50:26.164Z,10.60
2018-05-11T04:51:26.168Z,10.59
2018-05-11T04:52:26.162Z,10.63
2018-05-11T04:53:26.159Z,10.61
2018-05-11T04:54:26.158Z,10.68
2018-05-11T04:55:26.156Z,10.72
2018-05-11T04:56:26.154Z,10.71
2018-05-11T04:57:26.152Z,10.74
2018-05-11T04:58:26.152Z,10.82
2018-05-11T04:59:26.150Z,10.87
2018-05-11T05:00:26.147Z,10.87
2018-05-11T05:01:26.146Z,10.92
2018-05-11T05:02:26.144Z,11.00
2018-05-11T05:03:26.144Z,11.00
2018-05-11T05:04:26.143Z,10.97
2018-05-11T05:05:26.140Z,10.97
2018-05-11T05:06:26.144Z,10.96
2018-05-11T05:07:26.136Z,10.93
2018-05-11T05:08:26.135Z,10.99
2018-05-11T05:09:26.133Z,11.08
2018-05-11T05:10:26.132Z,11.12
2018-05-11T05:11:26.130Z,11.02
2018-05-11T05:12:26.173Z,11.00
2018-05-11T05:13:26.131Z,11.04
2018-05-11T05:14:26.127Z,11.11
2018-05-11T05:15:26.125Z,11.12
2018-05-11T05:16:26.123Z,11.23
2018-05-11T05:17:26.125Z,11.23
2018-05-11T05:18:26.126Z,11.36
2018-05-11T05:19:26.120Z,11.22
2018-05-11T05:20:26.120Z,11.23
2018-05-11T05:21:26.117Z,11.37
2018-05-11T05:22:26.116Z,11.44
2018-05-11T05:23:26.115Z,11.54
2018-05-11T05:24:26.113Z,11.52
2018-05-11T05:25:26.112Z,11.59
2018-05-11T05:26:26.111Z,11.69
2018-05-11T05:27:26.110Z,11.69
2018-05-11T05:28:26.109Z,11.68
2018-05-11T05:29:26.110Z,11.80
2018-05-11T05:30:26.107Z,11.78
2018-05-11T05:31:26.106Z,11.75
2018-05-11T05:32:26.104Z,11.70
2018-05-11T05:33:26.104Z,11.68
2018-05-11T05:34:26.103Z,11.70
2018-05-11T05:35:26.102Z,11.78
2018-05-11T05:36:26.102Z,11.78
2018-05-11T05:37:26.100Z,11.88
2018-05-11T05:38:26.099Z,11.78
2018-05-11T05:39:26.102Z,11.78
2018-05-11T05:40:26.097Z,11.94
2018-05-11T05:41:26.096Z,11.94
2018-05-11T05:42:26.096Z,11.88
2018-05-11T05:43:26.095Z,11.95
2018-05-11T05:44:26.093Z,12.00
2018-05-11T05:45:26.095Z,12.02
2018-05-11T05:46:26.093Z,11.97
2018-05-11T05:47:26.092Z,12.13
2018-05-11T05:48:26.091Z,12.25
2018-05-11T05:49:26.093Z,12.42
2018-05-11T05:50:26.090Z,12.58
2018-05-11T05:51:26.089Z,12.64
2018-05-11T05:52:26.088Z,12.82
2018-05-11T05:53:26.089Z,12.83
2018-05-11T05:54:26.088Z,12.93
2018-05-11T05:55:26.087Z,12.97
2018-05-11T05:56:26.090Z,12.82
2018-05-11T05:57:26.087Z,12.78
2018-05-11T05:58:26.119Z,12.57
2018-05-11T05:59:26.091Z,12.61
2018-05-11T06:00:26.086Z,12.57
2018-05-11T06:01:26.087Z,12.50
2018-05-11T06:02:26.150Z,12.49
2018-05-11T06:03:26.088Z,12.79
2018-05-11T06:04:26.088Z,12.80
2018-05-11T06:05:26.086Z,12.83
2018-05-11T06:06:26.088Z,12.86
2018-05-11T06:07:26.088Z,12.82
2018-05-11T06:08:26.088Z,12.78
2018-05-11T06:09:26.125Z,12.78
2018-05-11T06:10:26.088Z,12.68
2018-05-11T06:11:26.091Z,12.65
2018-05-11T06:12:26.088Z,12.75
2018-05-11T06:13:26.090Z,12.72
2018-05-11T06:14:26.090Z,12.82
2018-05-11T06:15:26.091Z,13.00
2018-05-11T06:16:26.092Z,12.97
2018-05-11T06:17:26.092Z,13.16
2018-05-11T06:18:26.091Z,13.18
2018-05-11T06:19:26.093Z,13.18
2018-05-11T06:20:26.091Z,13.16
2018-05-11T06:21:26.094Z,13.22
2018-05-11T06:22:26.093Z,13.18
2018-05-11T06:23:26.095Z,13.16
2018-05-11T06:24:26.093Z,13.20
2018-05-11T06:25:26.095Z,13.16
2018-05-11T06:26:26.096Z,13.13
2018-05-11T06:27:26.096Z,13.27
2018-05-11T06:28:26.100Z,13.16
2018-05-11T06:29:26.104Z,13.00
2018-05-11T06:30:26.099Z,12.95
2018-05-11T06:31:26.099Z,13.08
2018-05-11T06:32:26.101Z,13.01
2018-05-11T06:33:26.101Z,13.04
2018-05-11T06:34:26.221Z,12.80
2018-05-11T06:35:26.104Z,12.86
2018-05-11T06:36:26.108Z,12.61
2018-05-11T06:37:26.110Z,12.79
2018-05-11T06:38:26.107Z,12.68
2018-05-11T06:39:26.109Z,12.82
2018-05-11T06:40:26.148Z,12.87
2018-05-11T06:41:26.108Z,12.82
2018-05-11T06:42:26.109Z,12.75
2018-05-11T06:43:26.114Z,12.82
2018-05-11T06:44:26.112Z,12.80
2018-05-11T06:45:26.114Z,12.83
2018-05-11T06:46:26.113Z,12.93
2018-05-11T06:47:26.113Z,12.87
2018-05-11T06:48:26.113Z,12.86
2018-05-11T06:49:26.120Z,12.86
2018-05-11T06:50:26.118Z,12.94
2018-05-11T06:51:26.117Z,12.82
2018-05-11T06:52:26.117Z,12.95
2018-05-11T06:53:26.118Z,13.00
2018-05-11T06:54:26.119Z,13.08
2018-05-11T06:55:26.120Z,12.95
2018-05-11T06:56:26.120Z,13.01
2018-05-11T06:57:26.122Z,12.98
2018-05-11T06:58:26.122Z,13.04
2018-05-11T06:59:26.124Z,12.97
2018-05-11T07:00:26.124Z,13.13
2018-05-11T07:01:26.194Z,13.20
2018-05-11T07:02:26.126Z,13.22
2018-05-11T07:03:26.126Z,13.22
2018-05-11T07:04:26.129Z,13.57
2018-05-11T07:05:26.134Z,13.71
2018-05-11T07:06:26.132Z,13.95
2018-05-11T07:07:26.196Z,13.86
2018-05-11T07:08:26.131Z,13.67
2018-05-11T07:09:26.139Z,13.79
2018-05-11T07:10:26.135Z,13.81
2018-05-11T07:11:26.134Z,13.90
2018-05-11T07:12:26.139Z,13.67
2018-05-11T07:13:26.138Z,13.63
2018-05-11T07:14:26.148Z,13.81
2018-05-11T07:15:26.144Z,13.89
2018-05-11T07:16:26.140Z,13.93
2018-05-11T07:17:26.143Z,13.79
2018-05-11T07:18:26.232Z,13.92
2018-05-11T07:19:26.166Z,13.86
2018-05-11T07:20:26.146Z,13.95
2018-05-11T07:21:26.151Z,13.96
2018-05-11T07:22:26.151Z,14.11
2018-05-11T07:23:26.152Z,14.17
2018-05-11T07:24:26.155Z,14.11
2018-05-11T07:25:26.159Z,14.36
2018-05-11T07:26:26.157Z,14.33
2018-05-11T07:27:26.159Z,14.66
2018-05-11T07:28:26.160Z,14.72
2018-05-11T07:29:26.167Z,14.96
2018-05-11T07:30:26.166Z,14.82
2018-05-11T07:31:26.169Z,14.79
2018-05-11T07:32:26.175Z,14.91
2018-05-11T07:33:26.175Z,15.00
2018-05-11T07:34:26.179Z,14.91
2018-05-11T07:35:26.183Z,14.99
2018-05-11T07:36:26.185Z,14.99
2018-05-11T07:37:26.184Z,14.82
2018-05-11T07:38:26.190Z,14.99
2018-05-11T07:39:26.191Z,15.15
2018-05-11T07:40:26.194Z,15.37
2018-05-11T07:41:26.201Z,15.67
2018-05-11T07:42:26.200Z,15.68
2018-05-11T07:43:26.245Z,15.58
2018-05-11T07:44:26.205Z,15.33
2018-05-11T07:45:26.209Z,15.03
2018-05-11T07:46:26.213Z,14.89
2018-05-11T07:47:26.219Z,14.73
2018-05-11T07:48:26.220Z,14.96
2018-05-11T07:49:26.223Z,15.19
2018-05-11T07:50:26.233Z,15.59
2018-05-11T07:51:26.236Z,16.69
2018-05-11T07:52:26.234Z,17.54
2018-05-11T07:53:26.241Z,18.25
2018-05-11T07:54:26.243Z,19.18
2018-05-11T07:55:26.248Z,19.54
2018-05-11T07:56:26.254Z,19.64
2018-05-11T07:57:26.261Z,18.81
2018-05-11T07:58:26.266Z,19.07
2018-05-11T07:59:26.272Z,19.26
2018-05-11T08:00:26.281Z,19.51
2018-05-11T08:01:26.288Z,19.91
2018-05-11T08:02:26.297Z,19.30
2018-05-11T08:03:26.304Z,18.83
2018-05-11T08:04:26.314Z,18.59
2018-05-11T08:05:26.322Z,18.38
2018-05-11T08:06:26.332Z,18.50
2018-05-11T08:07:26.343Z,18.86
2018-05-11T08:08:26.357Z,18.23
2018-05-11T08:09:26.363Z,17.12
2018-05-11T08:10:26.374Z,16.97
2018-05-11T08:11:26.388Z,18.01
2018-05-11T08:12:26.397Z,19.22
2018-05-11T08:13:26.407Z,19.59
2018-05-11T08:14:26.586Z,20.19
2018-05-11T08:15:26.429Z,19.08
2018-05-11T08:16:26.440Z,17.85
2018-05-11T08:17:26.452Z,17.29
2018-05-11T08:18:26.466Z,16.90
2018-05-11T08:19:26.477Z,16.49
2018-05-11T08:20:26.485Z,16.12
2018-05-11T08:21:26.539Z,16.08
2018-05-11T08:22:26.508Z,16.15
2018-05-11T08:23:26.518Z,15.91
2018-05-11T08:24:26.528Z,16.08
2018-05-11T08:25:26.538Z,16.09
2018-05-11T08:26:26.548Z,15.88
2018-05-11T08:27:26.559Z,15.39
2018-05-11T08:28:26.569Z,14.89
2018-05-11T08:29:26.577Z,15.44
2018-05-11T08:30:26.587Z,16.56
2018-05-11T08:31:26.598Z,17.01
2018-05-11T08:32:26.604Z,16.68
2018-05-11T08:33:26.617Z,16.64
2018-05-11T08:34:26.624Z,16.69
2018-05-11T08:35:26.632Z,16.43
2018-05-11T08:36:26.640Z,16.20
2018-05-11T08:37:26.649Z,16.13
2018-05-11T08:38:26.659Z,16.13
2018-05-11T08:39:26.667Z,16.43
2018-05-11T08:40:26.676Z,16.46
2018-05-11T08:41:26.690Z,15.88
2018-05-11T08:42:26.692Z,15.92
2018-05-11T08:43:26.700Z,15.77
2018-05-11T08:44:26.707Z,15.82
2018-05-11T08:45:26.715Z,15.75
2018-05-11T08:46:26.741Z,15.72
2018-05-11T08:47:26.734Z,15.44
2018-05-11T08:48:26.738Z,15.54
2018-05-11T08:49:26.747Z,15.77
2018-05-11T08:50:26.754Z,16.04
2018-05-11T08:51:26.759Z,16.13
2018-05-11T08:52:26.768Z,16.42
2018-05-11T08:53:26.774Z,16.68
2018-05-11T08:54:26.781Z,16.79
2018-05-11T08:55:26.788Z,16.84
2018-05-11T08:56:26.796Z,17.57
2018-05-11T08:57:26.801Z,18.60
2018-05-11T08:58:26.808Z,19.79
2018-05-11T08:59:26.819Z,19.74
2018-05-11T09:00:26.821Z,19.22
2018-05-11T09:01:26.829Z,18.62
2018-05-11T09:02:26.838Z,18.05
2018-05-11T09:03:26.845Z,17.74
2018-05-11T09:04:26.852Z,16.97
2018-05-11T09:05:26.865Z,16.42
2018-05-11T09:06:26.868Z,16.04
2018-05-11T09:07:26.877Z,15.84
2018-05-11T09:08:26.889Z,15.59
2018-05-11T09:09:26.892Z,15.70
2018-05-11T09:10:26.899Z,15.75
2018-05-11T09:11:26.908Z,15.88
2018-05-11T09:12:26.914Z,15.68
2018-05-11T09:13:26.921Z,15.54
2018-05-11T09:14:26.931Z,15.47
2018-05-11T09:15:26.936Z,15.73
2018-05-11T09:16:26.944Z,15.97
2018-05-11T09:17:26.951Z,16.04
2018-05-11T09:18:26.957Z,15.95
2018-05-11T09:19:26.962Z,16.10
2018-05-11T09:20:26.969Z,16.12
2018-05-11T09:21:27.064Z,16.13
2018-05-11T09:22:26.982Z,16.16
2018-05-11T09:23:26.988Z,16.24
2018-05-11T09:24:26.994Z,16.41
2018-05-11T09:25:27.001Z,16.57
2018-05-11T09:26:27.007Z,16.60
2018-05-11T09:27:27.014Z,16.61
2018-05-11T09:28:27.020Z,16.43
2018-05-11T09:29:27.027Z,16.57
2018-05-11T09:30:27.032Z,16.60
2018-05-11T09:31:27.037Z,16.50
2018-05-11T09:32:27.043Z,16.56
2018-05-11T09:33:27.050Z,16.75
2018-05-11T09:34:27.055Z,16.97
2018-05-11T09:35:27.062Z,16.93
2018-05-11T09:36:27.066Z,16.89
2018-05-11T09:37:27.073Z,16.76
2018-05-11T09:38:27.079Z,16.54
2018-05-11T09:39:27.096Z,16.65
2018-05-11T09:40:27.090Z,16.65
2018-05-11T09:41:27.096Z,17.02
2018-05-11T09:42:27.102Z,16.96
2018-05-11T09:43:27.108Z,17.02
2018-05-11T09:44:27.113Z,16.87
2018-05-11T09:45:27.124Z,16.60
2018-05-11T09:46:27.125Z,16.65
2018-05-11T09:47:27.130Z,16.91
2018-05-11T09:48:27.136Z,16.64
2018-05-11T09:49:27.188Z,16.47
2018-05-11T09:50:27.148Z,16.38
2018-05-11T09:51:27.158Z,17.08
2018-05-11T09:52:27.160Z,17.29
2018-05-11T09:53:27.166Z,17.46
2018-05-11T09:54:27.181Z,17.67
2018-05-11T09:55:27.179Z,18.08
2018-05-11T09:56:27.184Z,17.57
2018-05-11T09:57:27.195Z,16.81
2018-05-11T09:58:27.196Z,16.54
2018-05-11T09:59:27.217Z,16.47
2018-05-11T10:00:27.209Z,18.07
2018-05-11T10:01:27.216Z,19.27
2018-05-11T10:02:27.222Z,19.14
2018-05-11T10:03:27.229Z,18.88
2018-05-11T10:04:27.238Z,18.31
2018-05-11T10:05:27.244Z,18.90
2018-05-11T10:06:27.250Z,19.51
2018-05-11T10:07:27.257Z,19.73
2018-05-11T10:08:27.263Z,19.07
2018-05-11T10:09:27.274Z,18.18
2018-05-11T10:10:27.280Z,18.55
2018-05-11T10:11:27.287Z,19.44
2018-05-11T10:12:27.296Z,19.55
2018-05-11T10:13:27.304Z,19.21
2018-05-11T10:14:27.320Z,19.55
2018-05-11T10:15:27.321Z,19.31
2018-05-11T10:16:27.328Z,19.58
2018-05-11T10:17:27.337Z,19.74
2018-05-11T10:18:27.346Z,20.93
2018-05-11T10:19:27.355Z,21.33
2018-05-11T10:20:27.363Z,20.47
2018-05-11T10:21:27.376Z,20.51
2018-05-11T10:22:27.382Z,20.47
2018-05-11T10:23:27.391Z,20.55
2018-05-11T10:24:27.398Z,19.58
2018-05-11T10:25:27.407Z,19.07
2018-05-11T10:26:27.417Z,19.70
2018-05-11T10:27:27.427Z,19.91
2018-05-11T10:28:27.436Z,20.14
2018-05-11T10:29:27.446Z,18.88
2018-05-11T10:30:27.456Z,18.37
2018-05-11T10:31:27.466Z,17.92
2018-05-11T10:32:27.475Z,17.78
2018-05-11T10:33:27.489Z,18.59
2018-05-11T10:34:27.675Z,19.86
2018-05-11T10:35:27.504Z,20.84
2018-05-11T10:36:27.513Z,21.32
2018-05-11T10:37:27.523Z,21.83
2018-05-11T10:38:27.534Z,22.11
2018-05-11T10:39:27.544Z,22.06
2018-05-11T10:40:27.554Z,21.18
2018-05-11T10:41:27.564Z,21.30
2018-05-11T10:42:27.575Z,20.87
2018-05-11T10:43:27.591Z,20.96
2018-05-11T10:44:27.594Z,20.82
2018-05-11T10:45:27.605Z,20.84
2018-05-11T10:46:27.616Z,20.87
2018-05-11T10:47:27.627Z,20.70
2018-05-11T10:48:27.734Z,20.58
2018-05-11T10:49:27.647Z,20.21
2018-05-11T10:50:27.659Z,20.88
2018-05-11T10:51:27.669Z,20.88
2018-05-11T10:52:27.679Z,20.52
2018-05-11T10:53:27.691Z,20.07
2018-05-11T10:54:27.701Z,20.34
2018-05-11T10:55:27.713Z,20.41
2018-05-11T10:56:27.722Z,20.87
2018-05-11T10:57:27.733Z,20.51
2018-05-11T10:58:27.744Z,20.74
2018-05-11T10:59:27.756Z,20.78
2018-05-11T11:00:27.767Z,20.74
2018-05-11T11:01:27.779Z,20.99
2018-05-11T11:02:27.855Z,21.24
2018-05-11T11:03:27.800Z,21.61
2018-05-11T11:04:27.811Z,21.21
2018-05-11T11:05:27.824Z,20.97
2018-05-11T11:06:27.835Z,20.99
2018-05-11T11:07:27.845Z,21.37
2018-05-11T11:08:27.855Z,21.36
2018-05-11T11:09:27.868Z,20.99
2018-05-11T11:10:27.878Z,21.09
2018-05-11T11:11:27.889Z,20.44
2018-05-11T11:12:27.901Z,20.26
2018-05-11T11:13:27.914Z,19.85
2018-05-11T11:14:27.921Z,20.19
2018-05-11T11:15:27.932Z,19.66
2018-05-11T11:16:27.941Z,19.69
2018-05-11T11:17:27.952Z,19.07
2018-05-11T11:18:27.963Z,18.90
2018-05-11T11:19:27.974Z,19.30
2018-05-11T11:20:27.984Z,19.07
2018-05-11T11:21:27.993Z,19.29
2018-05-11T11:22:28.003Z,19.54
2018-05-11T11:23:28.013Z,19.63
2018-05-11T11:24:28.021Z,19.62
2018-05-11T11:25:28.032Z,19.54
2018-05-11T11:26:28.040Z,19.04
2018-05-11T11:27:28.050Z,18.56
2018-05-11T11:28:28.058Z,17.97
2018-05-11T11:29:28.066Z,17.95
2018-05-11T11:30:28.075Z,18.11
2018-05-11T11:31:28.082Z,18.22
2018-05-11T11:32:28.091Z,18.50
2018-05-11T11:33:28.113Z,18.22
2018-05-11T11:34:28.144Z,18.40
2018-05-11T11:35:28.117Z,18.58
2018-05-11T11:36:28.124Z,18.52
2018-05-11T11:37:28.130Z,18.19
2018-05-11T11:38:28.138Z,18.18
2018-05-11T11:39:28.145Z,18.15
2018-05-11T11:40:28.152Z,18.16
2018-05-11T11:41:28.167Z,18.23
2018-05-11T11:42:28.167Z,18.35
2018-05-11T11:43:28.174Z,18.44
2018-05-11T11:44:28.181Z,18.25
2018-05-11T11:45:28.188Z,18.41
2018-05-11T11:46:28.195Z,18.50
2018-05-11T11:47:28.242Z,18.60
2018-05-11T11:48:28.208Z,18.29
2018-05-11T11:49:28.213Z,18.37
2018-05-11T11:50:28.221Z,18.35
2018-05-11T11:51:28.231Z,18.47
2018-05-11T11:52:28.233Z,18.44
2018-05-11T11:53:28.240Z,18.40
2018-05-11T11:54:28.246Z,18.66
2018-05-11T11:55:28.253Z,18.86
2018-05-11T11:56:28.343Z,18.73
2018-05-11T11:57:28.264Z,18.59
2018-05-11T11:58:28.271Z,18.52
2018-05-11T11:59:28.277Z,18.45
2018-05-11T12:00:28.283Z,18.28
2018-05-11T12:01:28.287Z,18.58
2018-05-11T12:02:28.295Z,18.26
2018-05-11T12:03:28.302Z,18.34
2018-05-11T12:04:28.304Z,18.38
2018-05-11T12:05:28.311Z,18.59
2018-05-11T12:06:28.317Z,18.68
2018-05-11T12:07:28.354Z,18.89
2018-05-11T12:08:28.327Z,18.83
2018-05-11T12:09:28.334Z,18.95
2018-05-11T12:10:28.339Z,18.90
2018-05-11T12:11:28.347Z,18.96
2018-05-11T12:12:28.352Z,18.98
2018-05-11T12:13:28.356Z,19.07
2018-05-11T12:14:28.365Z,19.00
2018-05-11T12:15:28.368Z,19.12
2018-05-11T12:16:28.373Z,19.16
2018-05-11T12:17:28.379Z,19.12
2018-05-11T12:18:28.383Z,19.00
2018-05-11T12:19:28.390Z,19.00
2018-05-11T12:20:28.399Z,18.99
2018-05-11T12:21:28.400Z,19.08
2018-05-11T12:22:28.405Z,19.02
2018-05-11T12:23:28.410Z,18.84
2018-05-11T12:24:28.417Z,19.04
2018-05-11T12:25:28.422Z,19.09
2018-05-11T12:26:28.479Z,18.96
2018-05-11T12:27:28.432Z,19.15
2018-05-11T12:28:28.438Z,19.07
2018-05-11T12:29:28.443Z,19.19
2018-05-11T12:30:28.453Z,19.12
2018-05-11T12:31:28.453Z,18.84
2018-05-11T12:32:28.457Z,19.02
2018-05-11T12:33:28.465Z,19.27
2018-05-11T12:34:28.477Z,19.44
2018-05-11T12:35:28.474Z,19.51
2018-05-11T12:36:28.479Z,19.51
2018-05-11T12:37:28.485Z,19.49
2018-05-11T12:38:28.491Z,19.45
2018-05-11T12:39:28.496Z,19.51
2018-05-11T12:40:28.506Z,19.33
2018-05-11T12:41:28.505Z,19.33
2018-05-11T12:42:28.511Z,19.33
2018-05-11T12:43:28.517Z,19.08
2018-05-11T12:44:28.521Z,19.00
2018-05-11T12:45:28.527Z,19.02
2018-05-11T12:46:28.531Z,18.96
2018-05-11T12:47:28.539Z,19.22
2018-05-11T12:48:28.542Z,19.33
2018-05-11T12:49:28.549Z,18.80
2018-05-11T12:50:28.552Z,19.04
2018-05-11T12:51:28.562Z,19.16
2018-05-11T12:52:28.563Z,19.09
2018-05-11T12:53:28.567Z,19.15
2018-05-11T12:54:28.573Z,19.26
2018-05-11T12:55:28.579Z,19.29
2018-05-11T12:56:28.582Z,19.24
2018-05-11T12:57:28.589Z,19.31
2018-05-11T12:58:28.594Z,19.31
2018-05-11T12:59:28.601Z,19.24
2018-05-11T13:00:28.604Z,19.67